sensor_id;sensor_type;location;lat;lon;timestamp;P1;durP1;ratioP1;P2;durP2;ratioP2
44276;SDS011;29973;43.742;1.236;2023-06-10T00:02:07;12.27;;;5.38;;
44276;SDS011;29973;43.742;1.236;2023-06-10T00:04:33;14.82;;;6.38;;
44276;SDS011;29973;43.742;1.236;2023-06-10T00:06:59;10.88;;;5.13;;
44276;SDS011;29973;43.742;1.236;2023-06-10T00:09:25;15.75;;;6.40;;
44276;SDS011;29973;43.742;1.236;2023-06-10T00:11:51;22.17;;;6.15;;
44276;SDS011;29973;43.742;1.236;2023-06-10T00:14:17;15.43;;;5.78;;
44276;SDS011;29973;43.742;1.236;2023-06-10T00:16:44;10.35;;;4.72;;
44276;SDS011;29973;43.742;1.236;2023-06-10T00:19:10;10.00;;;5.00;;
44276;SDS011;29973;43.742;1.236;2023-06-10T00:21:39;12.63;;;4.72;;
44276;SDS011;29973;43.742;1.236;2023-06-10T00:24:07;8.38;;;3.97;;
44276;SDS011;29973;43.742;1.236;2023-06-10T00:26:39;11.55;;;4.35;;
44276;SDS011;29973;43.742;1.236;2023-06-10T00:29:05;18.30;;;6.03;;
44276;SDS011;29973;43.742;1.236;2023-06-10T00:31:33;15.13;;;4.65;;
44276;SDS011;29973;43.742;1.236;2023-06-10T00:33:59;9.63;;;4.80;;
44276;SDS011;29973;43.742;1.236;2023-06-10T00:36:25;12.38;;;4.85;;
44276;SDS011;29973;43.742;1.236;2023-06-10T00:38:51;10.55;;;4.60;;
44276;SDS011;29973;43.742;1.236;2023-06-10T00:41:17;10.93;;;4.88;;
44276;SDS011;29973;43.742;1.236;2023-06-10T00:43:42;16.17;;;6.32;;
44276;SDS011;29973;43.742;1.236;2023-06-10T00:46:09;13.55;;;5.30;;
44276;SDS011;29973;43.742;1.236;2023-06-10T00:48:36;11.13;;;5.57;;
44276;SDS011;29973;43.742;1.236;2023-06-10T00:51:03;12.57;;;5.13;;
44276;SDS011;29973;43.742;1.236;2023-06-10T00:53:31;12.57;;;5.50;;
44276;SDS011;29973;43.742;1.236;2023-06-10T00:55:57;14.20;;;5.43;;
44276;SDS011;29973;43.742;1.236;2023-06-10T00:58:24;12.07;;;5.38;;
44276;SDS011;29973;43.742;1.236;2023-06-10T01:00:50;11.30;;;4.53;;
44276;SDS011;29973;43.742;1.236;2023-06-10T01:03:17;13.63;;;6.03;;
44276;SDS011;29973;43.742;1.236;2023-06-10T01:05:43;9.50;;;5.07;;
44276;SDS011;29973;43.742;1.236;2023-06-10T01:08:33;13.27;;;4.93;;
44276;SDS011;29973;43.742;1.236;2023-06-10T01:11:06;21.48;;;5.55;;
44276;SDS011;29973;43.742;1.236;2023-06-10T01:13:35;12.50;;;4.90;;
44276;SDS011;29973;43.742;1.236;2023-06-10T01:16:03;11.57;;;4.70;;
44276;SDS011;29973;43.742;1.236;2023-06-10T01:18:30;16.17;;;5.95;;
44276;SDS011;29973;43.742;1.236;2023-06-10T01:20:56;11.55;;;5.30;;
44276;SDS011;29973;43.742;1.236;2023-06-10T01:23:22;12.27;;;5.57;;
44276;SDS011;29973;43.742;1.236;2023-06-10T01:25:53;14.10;;;4.90;;
44276;SDS011;29973;43.742;1.236;2023-06-10T01:28:40;12.98;;;5.35;;
44276;SDS011;29973;43.742;1.236;2023-06-10T01:33:47;15.60;;;5.30;;
44276;SDS011;29973;43.742;1.236;2023-06-10T01:36:16;16.33;;;4.95;;
44276;SDS011;29973;43.742;1.236;2023-06-10T01:38:44;21.27;;;5.07;;
44276;SDS011;29973;43.742;1.236;2023-06-10T01:41:12;16.60;;;4.63;;
44276;SDS011;29973;43.742;1.236;2023-06-10T01:43:40;17.70;;;5.40;;
44276;SDS011;29973;43.742;1.236;2023-06-10T01:46:08;14.15;;;5.32;;
44276;SDS011;29973;43.742;1.236;2023-06-10T01:48:34;19.40;;;6.32;;
44276;SDS011;29973;43.742;1.236;2023-06-10T01:51:00;18.25;;;5.65;;
44276;SDS011;29973;43.742;1.236;2023-06-10T01:53:26;14.07;;;5.82;;
44276;SDS011;29973;43.742;1.236;2023-06-10T01:55:52;13.23;;;5.85;;
44276;SDS011;29973;43.742;1.236;2023-06-10T01:58:17;9.30;;;4.80;;
44276;SDS011;29973;43.742;1.236;2023-06-10T02:00:43;13.75;;;6.25;;
44276;SDS011;29973;43.742;1.236;2023-06-10T02:03:09;18.65;;;6.38;;
44276;SDS011;29973;43.742;1.236;2023-06-10T02:05:34;17.75;;;5.50;;
44276;SDS011;29973;43.742;1.236;2023-06-10T02:08:00;17.98;;;5.32;;
44276;SDS011;29973;43.742;1.236;2023-06-10T02:10:26;17.65;;;5.35;;
44276;SDS011;29973;43.742;1.236;2023-06-10T02:12:52;13.48;;;5.43;;
44276;SDS011;29973;43.742;1.236;2023-06-10T02:15:18;9.43;;;4.60;;
44276;SDS011;29973;43.742;1.236;2023-06-10T02:17:43;17.10;;;5.18;;
44276;SDS011;29973;43.742;1.236;2023-06-10T02:20:14;9.57;;;4.60;;
44276;SDS011;29973;43.742;1.236;2023-06-10T02:22:39;16.05;;;4.85;;
44276;SDS011;29973;43.742;1.236;2023-06-10T02:25:05;18.15;;;5.00;;
44276;SDS011;29973;43.742;1.236;2023-06-10T02:27:31;12.43;;;4.45;;
44276;SDS011;29973;43.742;1.236;2023-06-10T02:29:57;14.27;;;5.25;;
44276;SDS011;29973;43.742;1.236;2023-06-10T02:32:23;14.63;;;5.93;;
44276;SDS011;29973;43.742;1.236;2023-06-10T02:34:49;17.30;;;5.07;;
44276;SDS011;29973;43.742;1.236;2023-06-10T02:37:15;12.20;;;5.03;;
44276;SDS011;29973;43.742;1.236;2023-06-10T02:39:41;17.52;;;5.70;;
44276;SDS011;29973;43.742;1.236;2023-06-10T02:42:07;12.80;;;6.28;;
44276;SDS011;29973;43.742;1.236;2023-06-10T02:44:33;15.40;;;6.00;;
44276;SDS011;29973;43.742;1.236;2023-06-10T02:46:59;16.20;;;5.32;;
44276;SDS011;29973;43.742;1.236;2023-06-10T02:49:25;11.95;;;5.55;;
44276;SDS011;29973;43.742;1.236;2023-06-10T02:51:52;28.13;;;6.57;;
44276;SDS011;29973;43.742;1.236;2023-06-10T02:54:22;14.57;;;5.93;;
44276;SDS011;29973;43.742;1.236;2023-06-10T02:56:51;18.77;;;5.47;;
44276;SDS011;29973;43.742;1.236;2023-06-10T02:59:17;14.93;;;4.68;;
44276;SDS011;29973;43.742;1.236;2023-06-10T03:01:43;20.25;;;6.00;;
44276;SDS011;29973;43.742;1.236;2023-06-10T03:04:11;14.98;;;5.65;;
44276;SDS011;29973;43.742;1.236;2023-06-10T03:06:38;12.73;;;5.05;;
44276;SDS011;29973;43.742;1.236;2023-06-10T03:09:05;12.88;;;5.63;;
44276;SDS011;29973;43.742;1.236;2023-06-10T03:11:34;10.75;;;5.75;;
44276;SDS011;29973;43.742;1.236;2023-06-10T03:14:00;22.67;;;6.25;;
44276;SDS011;29973;43.742;1.236;2023-06-10T03:16:26;11.25;;;4.47;;
44276;SDS011;29973;43.742;1.236;2023-06-10T03:18:56;21.40;;;5.60;;
44276;SDS011;29973;43.742;1.236;2023-06-10T03:21:21;17.08;;;5.55;;
44276;SDS011;29973;43.742;1.236;2023-06-10T03:23:47;13.82;;;5.22;;
44276;SDS011;29973;43.742;1.236;2023-06-10T03:26:13;17.73;;;5.30;;
44276;SDS011;29973;43.742;1.236;2023-06-10T03:28:40;15.15;;;6.75;;
44276;SDS011;29973;43.742;1.236;2023-06-10T03:31:06;14.60;;;6.22;;
44276;SDS011;29973;43.742;1.236;2023-06-10T03:33:32;22.70;;;7.03;;
44276;SDS011;29973;43.742;1.236;2023-06-10T03:35:58;15.73;;;6.18;;
44276;SDS011;29973;43.742;1.236;2023-06-10T03:38:24;14.68;;;5.97;;
44276;SDS011;29973;43.742;1.236;2023-06-10T03:40:49;16.23;;;6.57;;
44276;SDS011;29973;43.742;1.236;2023-06-10T03:43:15;13.13;;;5.97;;
44276;SDS011;29973;43.742;1.236;2023-06-10T03:45:41;23.00;;;5.95;;
44276;SDS011;29973;43.742;1.236;2023-06-10T03:48:06;11.52;;;5.22;;
44276;SDS011;29973;43.742;1.236;2023-06-10T03:50:33;14.50;;;6.28;;
44276;SDS011;29973;43.742;1.236;2023-06-10T03:52:59;14.43;;;5.20;;
44276;SDS011;29973;43.742;1.236;2023-06-10T03:55:25;24.65;;;6.82;;
44276;SDS011;29973;43.742;1.236;2023-06-10T03:57:51;18.15;;;7.15;;
44276;SDS011;29973;43.742;1.236;2023-06-10T04:00:17;26.50;;;6.82;;
44276;SDS011;29973;43.742;1.236;2023-06-10T04:02:46;21.27;;;6.78;;
44276;SDS011;29973;43.742;1.236;2023-06-10T04:05:15;20.73;;;6.13;;
44276;SDS011;29973;43.742;1.236;2023-06-10T04:07:41;15.02;;;6.03;;
44276;SDS011;29973;43.742;1.236;2023-06-10T04:10:09;21.23;;;6.18;;
44276;SDS011;29973;43.742;1.236;2023-06-10T04:12:36;36.75;;;8.13;;
44276;SDS011;29973;43.742;1.236;2023-06-10T04:15:03;16.35;;;5.88;;
44276;SDS011;29973;43.742;1.236;2023-06-10T04:17:29;17.85;;;6.45;;
44276;SDS011;29973;43.742;1.236;2023-06-10T04:19:55;15.90;;;5.55;;
44276;SDS011;29973;43.742;1.236;2023-06-10T04:22:22;14.52;;;5.78;;
44276;SDS011;29973;43.742;1.236;2023-06-10T04:24:48;15.05;;;6.22;;
44276;SDS011;29973;43.742;1.236;2023-06-10T04:27:13;13.23;;;5.55;;
44276;SDS011;29973;43.742;1.236;2023-06-10T04:29:39;17.58;;;5.60;;
44276;SDS011;29973;43.742;1.236;2023-06-10T04:32:05;11.07;;;5.10;;
44276;SDS011;29973;43.742;1.236;2023-06-10T04:34:36;13.00;;;5.45;;
44276;SDS011;29973;43.742;1.236;2023-06-10T04:37:05;15.52;;;5.38;;
44276;SDS011;29973;43.742;1.236;2023-06-10T04:39:31;20.13;;;5.93;;
44276;SDS011;29973;43.742;1.236;2023-06-10T04:41:57;11.00;;;4.75;;
44276;SDS011;29973;43.742;1.236;2023-06-10T04:44:23;11.93;;;4.70;;
44276;SDS011;29973;43.742;1.236;2023-06-10T04:46:48;17.80;;;5.10;;
44276;SDS011;29973;43.742;1.236;2023-06-10T04:49:14;9.98;;;5.03;;
44276;SDS011;29973;43.742;1.236;2023-06-10T04:51:40;16.80;;;5.43;;
44276;SDS011;29973;43.742;1.236;2023-06-10T04:54:06;13.38;;;5.72;;
44276;SDS011;29973;43.742;1.236;2023-06-10T04:56:32;14.07;;;5.10;;
44276;SDS011;29973;43.742;1.236;2023-06-10T04:58:58;23.05;;;5.93;;
44276;SDS011;29973;43.742;1.236;2023-06-10T05:01:24;17.42;;;5.88;;
44276;SDS011;29973;43.742;1.236;2023-06-10T05:03:50;19.65;;;6.80;;
44276;SDS011;29973;43.742;1.236;2023-06-10T05:06:16;19.55;;;5.15;;
44276;SDS011;29973;43.742;1.236;2023-06-10T05:08:41;26.17;;;5.63;;
44276;SDS011;29973;43.742;1.236;2023-06-10T05:11:07;18.48;;;5.80;;
44276;SDS011;29973;43.742;1.236;2023-06-10T05:13:33;10.63;;;4.60;;
44276;SDS011;29973;43.742;1.236;2023-06-10T05:15:59;14.63;;;4.75;;
44276;SDS011;29973;43.742;1.236;2023-06-10T05:18:25;10.80;;;4.40;;
44276;SDS011;29973;43.742;1.236;2023-06-10T05:20:51;19.83;;;4.68;;
44276;SDS011;29973;43.742;1.236;2023-06-10T05:23:18;17.73;;;4.55;;
44276;SDS011;29973;43.742;1.236;2023-06-10T05:25:44;12.55;;;4.53;;
44276;SDS011;29973;43.742;1.236;2023-06-10T05:28:10;17.00;;;6.75;;
44276;SDS011;29973;43.742;1.236;2023-06-10T05:30:36;18.50;;;7.43;;
44276;SDS011;29973;43.742;1.236;2023-06-10T05:33:03;23.85;;;8.85;;
44276;SDS011;29973;43.742;1.236;2023-06-10T05:35:29;22.08;;;7.55;;
44276;SDS011;29973;43.742;1.236;2023-06-10T05:37:55;23.25;;;9.25;;
44276;SDS011;29973;43.742;1.236;2023-06-10T05:40:21;17.83;;;7.63;;
44276;SDS011;29973;43.742;1.236;2023-06-10T05:42:46;26.05;;;9.77;;
44276;SDS011;29973;43.742;1.236;2023-06-10T05:45:12;19.80;;;10.15;;
44276;SDS011;29973;43.742;1.236;2023-06-10T05:47:38;21.80;;;11.05;;
44276;SDS011;29973;43.742;1.236;2023-06-10T05:50:04;18.20;;;9.85;;
44276;SDS011;29973;43.742;1.236;2023-06-10T05:52:34;25.00;;;10.88;;
44276;SDS011;29973;43.742;1.236;2023-06-10T05:55:00;28.00;;;9.38;;
44276;SDS011;29973;43.742;1.236;2023-06-10T05:57:26;22.85;;;9.65;;
44276;SDS011;29973;43.742;1.236;2023-06-10T05:59:52;18.60;;;9.32;;
44276;SDS011;29973;43.742;1.236;2023-06-10T06:02:18;18.75;;;10.20;;
44276;SDS011;29973;43.742;1.236;2023-06-10T06:04:43;14.75;;;10.10;;
44276;SDS011;29973;43.742;1.236;2023-06-10T06:07:09;16.60;;;10.95;;
44276;SDS011;29973;43.742;1.236;2023-06-10T06:09:35;19.63;;;13.20;;
44276;SDS011;29973;43.742;1.236;2023-06-10T06:12:01;21.02;;;13.93;;
44276;SDS011;29973;43.742;1.236;2023-06-10T06:14:30;28.58;;;15.73;;
44276;SDS011;29973;43.742;1.236;2023-06-10T06:16:56;26.67;;;13.68;;
44276;SDS011;29973;43.742;1.236;2023-06-10T06:19:22;28.17;;;12.65;;
44276;SDS011;29973;43.742;1.236;2023-06-10T06:21:48;17.67;;;9.95;;
44276;SDS011;29973;43.742;1.236;2023-06-10T06:24:14;9.80;;;7.72;;
44276;SDS011;29973;43.742;1.236;2023-06-10T06:26:41;17.90;;;8.75;;
44276;SDS011;29973;43.742;1.236;2023-06-10T06:29:06;9.80;;;7.80;;
44276;SDS011;29973;43.742;1.236;2023-06-10T06:31:32;13.52;;;7.38;;
44276;SDS011;29973;43.742;1.236;2023-06-10T06:33:58;10.38;;;6.97;;
44276;SDS011;29973;43.742;1.236;2023-06-10T06:36:23;11.82;;;6.93;;
44276;SDS011;29973;43.742;1.236;2023-06-10T06:38:49;12.77;;;6.80;;
44276;SDS011;29973;43.742;1.236;2023-06-10T06:41:15;10.27;;;5.57;;
44276;SDS011;29973;43.742;1.236;2023-06-10T06:43:40;15.55;;;6.35;;
44276;SDS011;29973;43.742;1.236;2023-06-10T06:46:08;14.80;;;5.30;;
44276;SDS011;29973;43.742;1.236;2023-06-10T06:48:33;12.02;;;5.07;;
44276;SDS011;29973;43.742;1.236;2023-06-10T06:50:59;12.80;;;4.85;;
44276;SDS011;29973;43.742;1.236;2023-06-10T06:53:25;10.82;;;4.43;;
44276;SDS011;29973;43.742;1.236;2023-06-10T06:55:51;11.35;;;3.88;;
44276;SDS011;29973;43.742;1.236;2023-06-10T06:58:16;7.60;;;4.78;;
44276;SDS011;29973;43.742;1.236;2023-06-10T07:00:42;8.82;;;3.88;;
44276;SDS011;29973;43.742;1.236;2023-06-10T07:03:08;5.65;;;3.65;;
44276;SDS011;29973;43.742;1.236;2023-06-10T07:05:33;8.38;;;3.65;;
44276;SDS011;29973;43.742;1.236;2023-06-10T07:07:59;8.48;;;3.40;;
44276;SDS011;29973;43.742;1.236;2023-06-10T07:10:25;9.52;;;3.08;;
44276;SDS011;29973;43.742;1.236;2023-06-10T07:12:51;10.70;;;3.00;;
44276;SDS011;29973;43.742;1.236;2023-06-10T07:15:18;3.60;;;2.67;;
44276;SDS011;29973;43.742;1.236;2023-06-10T07:17:43;7.93;;;2.53;;
44276;SDS011;29973;43.742;1.236;2023-06-10T07:20:09;10.27;;;2.25;;
44276;SDS011;29973;43.742;1.236;2023-06-10T07:22:36;4.10;;;2.30;;
44276;SDS011;29973;43.742;1.236;2023-06-10T07:25:04;4.55;;;2.47;;
44276;SDS011;29973;43.742;1.236;2023-06-10T07:27:30;8.75;;;2.58;;
44276;SDS011;29973;43.742;1.236;2023-06-10T07:29:56;2.92;;;2.05;;
44276;SDS011;29973;43.742;1.236;2023-06-10T07:32:22;7.45;;;1.73;;
44276;SDS011;29973;43.742;1.236;2023-06-10T07:34:48;4.65;;;1.80;;
44276;SDS011;29973;43.742;1.236;2023-06-10T07:37:15;2.90;;;1.80;;
44276;SDS011;29973;43.742;1.236;2023-06-10T07:39:41;12.13;;;1.90;;
44276;SDS011;29973;43.742;1.236;2023-06-10T07:42:08;6.85;;;1.60;;
44276;SDS011;29973;43.742;1.236;2023-06-10T07:44:34;4.03;;;1.73;;
44276;SDS011;29973;43.742;1.236;2023-06-10T07:46:59;6.22;;;1.75;;
44276;SDS011;29973;43.742;1.236;2023-06-10T07:49:25;5.20;;;1.85;;
44276;SDS011;29973;43.742;1.236;2023-06-10T07:51:53;3.45;;;1.90;;
44276;SDS011;29973;43.742;1.236;2023-06-10T07:54:19;5.43;;;2.40;;
44276;SDS011;29973;43.742;1.236;2023-06-10T07:56:45;5.78;;;1.40;;
44276;SDS011;29973;43.742;1.236;2023-06-10T07:59:13;3.35;;;1.40;;
44276;SDS011;29973;43.742;1.236;2023-06-10T08:01:39;2.53;;;1.65;;
44276;SDS011;29973;43.742;1.236;2023-06-10T08:04:05;3.45;;;1.50;;
44276;SDS011;29973;43.742;1.236;2023-06-10T08:06:31;3.67;;;1.90;;
44276;SDS011;29973;43.742;1.236;2023-06-10T08:08:57;6.53;;;2.05;;
44276;SDS011;29973;43.742;1.236;2023-06-10T08:11:23;7.00;;;1.77;;
44276;SDS011;29973;43.742;1.236;2023-06-10T08:13:48;5.75;;;1.90;;
44276;SDS011;29973;43.742;1.236;2023-06-10T08:16:14;3.80;;;1.80;;
44276;SDS011;29973;43.742;1.236;2023-06-10T08:18:40;4.95;;;2.00;;
44276;SDS011;29973;43.742;1.236;2023-06-10T08:21:06;4.65;;;2.20;;
44276;SDS011;29973;43.742;1.236;2023-06-10T08:23:31;7.57;;;2.60;;
44276;SDS011;29973;43.742;1.236;2023-06-10T08:25:57;6.18;;;2.08;;
44276;SDS011;29973;43.742;1.236;2023-06-10T08:28:23;3.55;;;2.30;;
44276;SDS011;29973;43.742;1.236;2023-06-10T08:30:49;6.57;;;2.50;;
44276;SDS011;29973;43.742;1.236;2023-06-10T08:33:14;5.28;;;2.40;;
44276;SDS011;29973;43.742;1.236;2023-06-10T08:35:40;6.50;;;2.20;;
44276;SDS011;29973;43.742;1.236;2023-06-10T08:38:06;3.85;;;1.98;;
44276;SDS011;29973;43.742;1.236;2023-06-10T08:40:32;2.58;;;1.70;;
44276;SDS011;29973;43.742;1.236;2023-06-10T08:43:00;6.18;;;2.20;;
44276;SDS011;29973;43.742;1.236;2023-06-10T08:45:36;6.60;;;2.08;;
44276;SDS011;29973;43.742;1.236;2023-06-10T08:48:02;4.55;;;2.13;;
44276;SDS011;29973;43.742;1.236;2023-06-10T08:50:33;2.38;;;1.85;;
44276;SDS011;29973;43.742;1.236;2023-06-10T08:53:01;5.55;;;1.85;;
44276;SDS011;29973;43.742;1.236;2023-06-10T08:55:30;5.50;;;1.90;;
44276;SDS011;29973;43.742;1.236;2023-06-10T08:58:01;6.60;;;2.13;;
44276;SDS011;29973;43.742;1.236;2023-06-10T09:00:28;3.00;;;2.20;;
44276;SDS011;29973;43.742;1.236;2023-06-10T09:02:58;2.58;;;1.65;;
44276;SDS011;29973;43.742;1.236;2023-06-10T09:05:24;2.05;;;1.60;;
44276;SDS011;29973;43.742;1.236;2023-06-10T09:07:52;6.60;;;2.08;;
44276;SDS011;29973;43.742;1.236;2023-06-10T09:10:19;2.65;;;2.00;;
44276;SDS011;29973;43.742;1.236;2023-06-10T09:12:44;1.98;;;1.52;;
44276;SDS011;29973;43.742;1.236;2023-06-10T09:15:10;3.78;;;1.70;;
44276;SDS011;29973;43.742;1.236;2023-06-10T09:17:37;4.85;;;1.77;;
44276;SDS011;29973;43.742;1.236;2023-06-10T09:20:05;4.97;;;2.00;;
44276;SDS011;29973;43.742;1.236;2023-06-10T09:22:32;7.60;;;1.65;;
44276;SDS011;29973;43.742;1.236;2023-06-10T09:25:04;2.65;;;1.90;;
44276;SDS011;29973;43.742;1.236;2023-06-10T09:27:33;8.63;;;1.70;;
44276;SDS011;29973;43.742;1.236;2023-06-10T09:30:28;5.43;;;1.77;;
44276;SDS011;29973;43.742;1.236;2023-06-10T09:32:56;4.70;;;2.20;;
44276;SDS011;29973;43.742;1.236;2023-06-10T09:35:24;2.95;;;1.80;;
44276;SDS011;29973;43.742;1.236;2023-06-10T09:37:54;2.25;;;1.65;;
44276;SDS011;29973;43.742;1.236;2023-06-10T09:40:24;2.72;;;1.73;;
44276;SDS011;29973;43.742;1.236;2023-06-10T09:42:57;9.43;;;1.90;;
44276;SDS011;29973;43.742;1.236;2023-06-10T09:45:28;5.20;;;1.75;;
44276;SDS011;29973;43.742;1.236;2023-06-10T09:47:56;2.70;;;1.80;;
44276;SDS011;29973;43.742;1.236;2023-06-10T09:50:22;2.65;;;1.60;;
44276;SDS011;29973;43.742;1.236;2023-06-10T09:52:48;2.92;;;1.60;;
44276;SDS011;29973;43.742;1.236;2023-06-10T09:55:14;4.28;;;1.77;;
44276;SDS011;29973;43.742;1.236;2023-06-10T09:57:40;5.82;;;1.73;;
44276;SDS011;29973;43.742;1.236;2023-06-10T10:00:07;4.10;;;1.83;;
44276;SDS011;29973;43.742;1.236;2023-06-10T10:02:50;4.75;;;2.22;;
44276;SDS011;29973;43.742;1.236;2023-06-10T10:05:18;2.88;;;1.30;;
44276;SDS011;29973;43.742;1.236;2023-06-10T10:07:46;2.05;;;1.30;;
44276;SDS011;29973;43.742;1.236;2023-06-10T10:10:13;5.20;;;1.30;;
44276;SDS011;29973;43.742;1.236;2023-06-10T10:12:41;3.40;;;1.80;;
44276;SDS011;29973;43.742;1.236;2023-06-10T10:15:08;5.40;;;1.67;;
44276;SDS011;29973;43.742;1.236;2023-06-10T10:20:26;5.78;;;1.55;;
44276;SDS011;29973;43.742;1.236;2023-06-10T10:22:58;1.48;;;1.30;;
44276;SDS011;29973;43.742;1.236;2023-06-10T10:25:27;3.85;;;1.40;;
44276;SDS011;29973;43.742;1.236;2023-06-10T10:30:49;2.13;;;1.20;;
44276;SDS011;29973;43.742;1.236;2023-06-10T10:33:18;2.03;;;1.55;;
44276;SDS011;29973;43.742;1.236;2023-06-10T10:35:48;3.08;;;1.70;;
44276;SDS011;29973;43.742;1.236;2023-06-10T10:38:14;1.42;;;1.30;;
44276;SDS011;29973;43.742;1.236;2023-06-10T10:40:40;1.30;;;1.20;;
44276;SDS011;29973;43.742;1.236;2023-06-10T10:43:07;3.47;;;1.40;;
44276;SDS011;29973;43.742;1.236;2023-06-10T10:45:34;2.80;;;1.35;;
44276;SDS011;29973;43.742;1.236;2023-06-10T10:48:03;1.77;;;1.27;;
44276;SDS011;29973;43.742;1.236;2023-06-10T10:50:36;8.30;;;1.42;;
44276;SDS011;29973;43.742;1.236;2023-06-10T10:53:03;4.82;;;1.30;;
44276;SDS011;29973;43.742;1.236;2023-06-10T10:55:30;4.22;;;1.20;;
44276;SDS011;29973;43.742;1.236;2023-06-10T10:58:06;2.67;;;1.55;;
44276;SDS011;29973;43.742;1.236;2023-06-10T11:00:37;4.97;;;1.48;;
44276;SDS011;29973;43.742;1.236;2023-06-10T11:03:08;2.90;;;1.23;;
44276;SDS011;29973;43.742;1.236;2023-06-10T11:05:42;2.80;;;1.40;;
44276;SDS011;29973;43.742;1.236;2023-06-10T11:08:14;3.60;;;1.70;;
44276;SDS011;29973;43.742;1.236;2023-06-10T11:11:00;3.08;;;1.67;;
44276;SDS011;29973;43.742;1.236;2023-06-10T11:13:26;6.20;;;1.25;;
44276;SDS011;29973;43.742;1.236;2023-06-10T11:15:53;1.80;;;1.30;;
44276;SDS011;29973;43.742;1.236;2023-06-10T11:18:32;2.13;;;1.40;;
44276;SDS011;29973;43.742;1.236;2023-06-10T11:21:04;4.25;;;1.48;;
44276;SDS011;29973;43.742;1.236;2023-06-10T11:23:32;1.95;;;1.33;;
44276;SDS011;29973;43.742;1.236;2023-06-10T11:26:12;3.50;;;1.40;;
44276;SDS011;29973;43.742;1.236;2023-06-10T11:36:18;3.28;;;1.20;;
44276;SDS011;29973;43.742;1.236;2023-06-10T11:38:44;1.10;;;1.00;;
44276;SDS011;29973;43.742;1.236;2023-06-10T11:41:11;1.70;;;1.02;;
44276;SDS011;29973;43.742;1.236;2023-06-10T11:43:40;2.05;;;1.05;;
44276;SDS011;29973;43.742;1.236;2023-06-10T11:46:11;2.88;;;1.35;;
44276;SDS011;29973;43.742;1.236;2023-06-10T11:48:37;1.98;;;1.00;;
44276;SDS011;29973;43.742;1.236;2023-06-10T11:51:07;2.45;;;0.90;;
44276;SDS011;29973;43.742;1.236;2023-06-10T11:53:33;1.35;;;0.80;;
44276;SDS011;29973;43.742;1.236;2023-06-10T11:55:59;1.30;;;0.75;;
44276;SDS011;29973;43.742;1.236;2023-06-10T11:58:26;1.13;;;0.80;;
44276;SDS011;29973;43.742;1.236;2023-06-10T12:00:52;0.98;;;0.80;;
44276;SDS011;29973;43.742;1.236;2023-06-10T12:03:21;1.88;;;0.80;;
44276;SDS011;29973;43.742;1.236;2023-06-10T12:06:00;3.67;;;1.10;;
44276;SDS011;29973;43.742;1.236;2023-06-10T12:08:27;1.70;;;0.90;;
44276;SDS011;29973;43.742;1.236;2023-06-10T12:10:53;2.13;;;1.35;;
44276;SDS011;29973;43.742;1.236;2023-06-10T12:13:20;1.10;;;1.00;;
44276;SDS011;29973;43.742;1.236;2023-06-10T12:15:46;2.17;;;1.08;;
44276;SDS011;29973;43.742;1.236;2023-06-10T12:18:15;1.83;;;1.13;;
44276;SDS011;29973;43.742;1.236;2023-06-10T12:20:45;3.47;;;1.10;;
44276;SDS011;29973;43.742;1.236;2023-06-10T12:23:11;1.75;;;0.77;;
44276;SDS011;29973;43.742;1.236;2023-06-10T12:25:38;3.22;;;1.05;;
44276;SDS011;29973;43.742;1.236;2023-06-10T12:28:04;2.63;;;1.00;;
44276;SDS011;29973;43.742;1.236;2023-06-10T12:30:33;3.88;;;1.05;;
44276;SDS011;29973;43.742;1.236;2023-06-10T12:32:59;1.10;;;0.90;;
44276;SDS011;29973;43.742;1.236;2023-06-10T12:35:25;2.25;;;1.23;;
44276;SDS011;29973;43.742;1.236;2023-06-10T12:38:00;1.17;;;0.93;;
44276;SDS011;29973;43.742;1.236;2023-06-10T12:40:37;3.53;;;1.10;;
44276;SDS011;29973;43.742;1.236;2023-06-10T12:43:05;2.50;;;0.98;;
44276;SDS011;29973;43.742;1.236;2023-06-10T12:45:32;2.15;;;1.00;;
44276;SDS011;29973;43.742;1.236;2023-06-10T12:50:35;2.30;;;0.80;;
44276;SDS011;29973;43.742;1.236;2023-06-10T12:53:02;4.80;;;1.00;;
44276;SDS011;29973;43.742;1.236;2023-06-10T12:55:28;2.33;;;0.93;;
44276;SDS011;29973;43.742;1.236;2023-06-10T12:57:54;0.90;;;0.80;;
44276;SDS011;29973;43.742;1.236;2023-06-10T13:00:21;5.97;;;1.23;;
44276;SDS011;29973;43.742;1.236;2023-06-10T13:02:48;1.13;;;0.77;;
44276;SDS011;29973;43.742;1.236;2023-06-10T13:05:15;3.60;;;0.70;;
44276;SDS011;29973;43.742;1.236;2023-06-10T13:07:43;1.38;;;0.60;;
44276;SDS011;29973;43.742;1.236;2023-06-10T13:10:09;1.00;;;0.90;;
44276;SDS011;29973;43.742;1.236;2023-06-10T13:12:35;2.45;;;0.90;;
44276;SDS011;29973;43.742;1.236;2023-06-10T13:15:02;1.08;;;0.60;;
44276;SDS011;29973;43.742;1.236;2023-06-10T13:17:28;1.30;;;0.93;;
44276;SDS011;29973;43.742;1.236;2023-06-10T13:19:54;2.55;;;0.88;;
44276;SDS011;29973;43.742;1.236;2023-06-10T13:22:20;1.65;;;0.77;;
44276;SDS011;29973;43.742;1.236;2023-06-10T13:24:46;2.30;;;0.70;;
44276;SDS011;29973;43.742;1.236;2023-06-10T13:27:12;2.75;;;0.77;;
44276;SDS011;29973;43.742;1.236;2023-06-10T13:29:39;0.80;;;0.70;;
44276;SDS011;29973;43.742;1.236;2023-06-10T13:32:05;2.38;;;0.77;;
44276;SDS011;29973;43.742;1.236;2023-06-10T13:34:31;1.23;;;0.77;;
44276;SDS011;29973;43.742;1.236;2023-06-10T13:36:57;0.70;;;0.70;;
44276;SDS011;29973;43.742;1.236;2023-06-10T13:39:23;3.30;;;0.70;;
44276;SDS011;29973;43.742;1.236;2023-06-10T13:41:49;1.02;;;0.70;;
44276;SDS011;29973;43.742;1.236;2023-06-10T13:44:15;3.25;;;0.50;;
44276;SDS011;29973;43.742;1.236;2023-06-10T13:46:40;1.40;;;0.82;;
44276;SDS011;29973;43.742;1.236;2023-06-10T13:49:06;0.98;;;0.75;;
44276;SDS011;29973;43.742;1.236;2023-06-10T13:51:32;1.10;;;0.70;;
44276;SDS011;29973;43.742;1.236;2023-06-10T13:53:57;1.33;;;0.60;;
44276;SDS011;29973;43.742;1.236;2023-06-10T13:56:23;1.77;;;0.93;;
44276;SDS011;29973;43.742;1.236;2023-06-10T13:58:50;2.88;;;0.63;;
44276;SDS011;29973;43.742;1.236;2023-06-10T14:01:15;2.20;;;0.68;;
44276;SDS011;29973;43.742;1.236;2023-06-10T14:03:41;0.63;;;0.60;;
44276;SDS011;29973;43.742;1.236;2023-06-10T14:06:07;1.40;;;0.60;;
44276;SDS011;29973;43.742;1.236;2023-06-10T14:08:33;0.77;;;0.70;;
44276;SDS011;29973;43.742;1.236;2023-06-10T14:10:58;1.27;;;0.80;;
44276;SDS011;29973;43.742;1.236;2023-06-10T14:13:24;0.98;;;0.70;;
44276;SDS011;29973;43.742;1.236;2023-06-10T14:15:50;1.27;;;0.80;;
44276;SDS011;29973;43.742;1.236;2023-06-10T14:18:15;2.15;;;0.63;;
44276;SDS011;29973;43.742;1.236;2023-06-10T14:20:41;3.58;;;0.95;;
44276;SDS011;29973;43.742;1.236;2023-06-10T14:23:07;1.30;;;0.52;;
44276;SDS011;29973;43.742;1.236;2023-06-10T14:25:32;1.13;;;0.80;;
44276;SDS011;29973;43.742;1.236;2023-06-10T14:27:58;1.58;;;0.70;;
44276;SDS011;29973;43.742;1.236;2023-06-10T14:30:24;3.13;;;0.80;;
44276;SDS011;29973;43.742;1.236;2023-06-10T14:32:49;0.82;;;0.70;;
44276;SDS011;29973;43.742;1.236;2023-06-10T14:35:15;4.97;;;1.05;;
44276;SDS011;29973;43.742;1.236;2023-06-10T14:37:41;2.22;;;0.90;;
44276;SDS011;29973;43.742;1.236;2023-06-10T14:40:07;1.13;;;0.50;;
44276;SDS011;29973;43.742;1.236;2023-06-10T14:42:33;2.03;;;0.73;;
44276;SDS011;29973;43.742;1.236;2023-06-10T14:44:59;3.97;;;0.60;;
44276;SDS011;29973;43.742;1.236;2023-06-10T14:47:25;1.05;;;0.70;;
44276;SDS011;29973;43.742;1.236;2023-06-10T14:49:51;1.23;;;0.70;;
44276;SDS011;29973;43.742;1.236;2023-06-10T14:52:16;1.48;;;0.80;;
44276;SDS011;29973;43.742;1.236;2023-06-10T14:54:42;1.00;;;0.75;;
44276;SDS011;29973;43.742;1.236;2023-06-10T14:57:08;1.95;;;1.00;;
44276;SDS011;29973;43.742;1.236;2023-06-10T14:59:34;1.88;;;0.73;;